KDAG/DAG METAR and TAF weather

Enter ICAO airport designator
Station Type Date Time Source
KDAG METAR 2022/12/05 15:50 UTC NOAA

KDAG 051550Z AUTO 25008KT 10SM CLR 08/05 A3001 RMK AO2 SLP155 T00780050


Station Type Date Time Source
KDAG Decoded METAR 2022/12/05 15:50 UTC NOAA

BARSTOW-DAGGETT AIRPORT, CA, United States (KDAG) 34-51N 116-47W 587M
Dec 05, 2022 - 10:50 AM EST / 2022.12.05 1550 UTC
Wind: from the WSW (250 degrees) at 9 MPH (8 KT):0
Visibility: 10 mile(s):0
Sky conditions: clear
Temperature: 46.0 F (7.8 C)
Dew Point: 41.0 F (5.0 C)
Relative Humidity: 82%
Pressure (altimeter): 30.01 in. Hg (1016 hPa)
ob: KDAG 051550Z AUTO 25008KT 10SM CLR 08/05 A3001 RMK AO2 SLP155 T00780050
cycle: 16

Station Type Date Time Source
KDAG TAF 2022/12/05 12:36 UTC NOAA

TAF KDAG 051134Z 0512/0612 28014KT P6SM SCT120 SCT250
FM051800 26016G26KT P6SM BKN250
FM060400 24012G22KT P6SM SCT250

Example: see airport list